createdAt,value
2019-01-28T00:01:56.816Z,6.20
2019-01-28T00:04:23.169Z,6.30
2019-01-28T00:06:49.468Z,6.90
2019-01-28T00:09:15.643Z,6.40
2019-01-28T00:11:41.800Z,6.62
2019-01-28T00:14:08.209Z,6.80
2019-01-28T00:16:34.509Z,6.60
2019-01-28T00:19:00.760Z,6.30
2019-01-28T00:21:26.824Z,6.85
2019-01-28T00:23:52.875Z,6.13
2019-01-28T00:26:18.986Z,6.05
2019-01-28T00:28:45.114Z,5.92
2019-01-28T00:31:11.156Z,6.12
2019-01-28T00:33:37.223Z,5.77
2019-01-28T00:36:03.387Z,6.20
2019-01-28T00:38:29.508Z,5.83
2019-01-28T00:40:55.668Z,6.30
2019-01-28T00:43:21.956Z,6.12
2019-01-28T00:45:48.010Z,6.50
2019-01-28T00:48:14.062Z,6.20
2019-01-28T00:50:40.373Z,6.40
2019-01-28T00:53:06.407Z,6.17
2019-01-28T00:55:32.495Z,6.17
2019-01-28T00:57:58.756Z,6.75
2019-01-28T01:00:24.971Z,6.30
2019-01-28T01:02:51.121Z,6.30
2019-01-28T01:05:17.352Z,6.10
2019-01-28T01:07:43.406Z,6.50
2019-01-28T01:10:10.927Z,6.30
2019-01-28T01:12:37.045Z,6.40
2019-01-28T01:15:06.180Z,6.30
2019-01-28T01:17:32.478Z,5.90
2019-01-28T01:19:58.638Z,7.08
2019-01-28T01:22:24.665Z,6.90
2019-01-28T01:24:50.738Z,7.70
2019-01-28T01:27:16.864Z,7.70
2019-01-28T01:29:42.928Z,7.90
2019-01-28T01:32:08.968Z,7.03
2019-01-28T01:34:35.042Z,7.40
2019-01-28T01:37:01.145Z,6.92
2019-01-28T01:39:27.400Z,7.78
2019-01-28T01:41:53.714Z,7.60
2019-01-28T01:44:19.760Z,7.58
2019-01-28T01:46:45.921Z,8.48
2019-01-28T01:49:12.304Z,7.90
2019-01-28T01:51:38.336Z,8.13
2019-01-28T01:54:05.414Z,8.30
2019-01-28T01:56:31.464Z,8.00
2019-01-28T01:58:57.500Z,8.20
2019-01-28T02:01:23.572Z,8.70
2019-01-28T02:03:49.639Z,8.73
2019-01-28T02:06:15.676Z,8.33
2019-01-28T02:08:41.856Z,8.07
2019-01-28T02:11:07.916Z,8.55
2019-01-28T02:13:33.949Z,9.38
2019-01-28T02:16:00.009Z,9.18
2019-01-28T02:18:26.105Z,8.63
2019-01-28T02:20:52.288Z,9.40
2019-01-28T02:23:18.338Z,8.80
2019-01-28T02:25:44.402Z,9.00
2019-01-28T02:28:10.605Z,8.43
2019-01-28T02:30:36.695Z,8.23
2019-01-28T02:33:03.043Z,8.95
2019-01-28T02:35:29.092Z,9.15
2019-01-28T02:37:55.173Z,8.40
2019-01-28T02:40:21.230Z,8.30
2019-01-28T02:42:47.349Z,8.38
2019-01-28T02:45:14.665Z,8.78
2019-01-28T02:47:40.702Z,8.13
2019-01-28T02:50:12.685Z,8.50
2019-01-28T02:52:38.820Z,9.37
2019-01-28T02:55:06.125Z,8.83
2019-01-28T02:57:32.209Z,8.88
2019-01-28T02:59:58.265Z,8.50
2019-01-28T03:02:24.428Z,8.30
2019-01-28T03:04:50.489Z,8.53
2019-01-28T03:07:16.518Z,8.68
2019-01-28T03:09:42.898Z,8.83
2019-01-28T03:12:09.021Z,8.80
2019-01-28T03:14:35.112Z,9.20
2019-01-28T03:17:07.213Z,9.17
2019-01-28T03:19:34.034Z,9.05
2019-01-28T03:22:00.176Z,9.90
2019-01-28T03:24:26.210Z,9.70
2019-01-28T03:26:52.293Z,8.88
2019-01-28T03:29:18.495Z,9.70
2019-01-28T03:31:44.647Z,9.08
2019-01-28T03:34:11.022Z,9.90
2019-01-28T03:36:37.050Z,10.13
2019-01-28T03:39:06.280Z,9.60
2019-01-28T03:41:32.344Z,9.75
2019-01-28T03:43:58.436Z,9.95
2019-01-28T03:46:24.484Z,10.48
2019-01-28T03:48:50.565Z,11.13
2019-01-28T03:51:16.603Z,11.45
2019-01-28T03:53:42.860Z,11.22
2019-01-28T03:56:09.133Z,11.95
2019-01-28T03:58:35.182Z,12.35
2019-01-28T04:01:01.316Z,12.33
2019-01-28T04:03:27.401Z,12.10
2019-01-28T04:05:53.829Z,12.60
2019-01-28T04:08:19.865Z,12.00
2019-01-28T04:10:46.065Z,13.62
2019-01-28T04:13:12.136Z,13.80
2019-01-28T04:15:38.497Z,13.13
2019-01-28T04:18:04.872Z,13.40
2019-01-28T04:20:35.641Z,13.70
2019-01-28T04:23:01.784Z,12.85
2019-01-28T04:25:27.838Z,13.98
2019-01-28T04:27:53.885Z,13.70
2019-01-28T04:30:22.149Z,15.00
2019-01-28T04:32:48.278Z,13.53
2019-01-28T04:35:14.455Z,14.43
2019-01-28T04:37:40.514Z,14.00
2019-01-28T04:40:10.072Z,13.28
2019-01-28T04:42:36.384Z,13.43
2019-01-28T04:45:05.897Z,13.80
2019-01-28T04:47:31.954Z,14.10
2019-01-28T04:49:58.363Z,15.80
2019-01-28T04:52:24.571Z,15.43
2019-01-28T04:54:50.654Z,13.85
2019-01-28T04:57:17.705Z,13.07
2019-01-28T04:59:43.920Z,13.40
2019-01-28T05:02:10.297Z,14.20
2019-01-28T05:04:36.572Z,13.80
2019-01-28T05:07:02.718Z,14.03
2019-01-28T05:09:28.817Z,13.85
2019-01-28T05:11:55.014Z,14.80
2019-01-28T05:14:21.082Z,14.70
2019-01-28T05:16:47.161Z,14.85
2019-01-28T05:19:13.211Z,15.05
2019-01-28T05:21:39.327Z,14.73
2019-01-28T05:24:05.673Z,15.00
2019-01-28T05:26:31.755Z,15.40
2019-01-28T05:28:57.928Z,15.53
2019-01-28T05:31:23.959Z,15.28
2019-01-28T05:33:51.188Z,15.83
2019-01-28T05:36:17.297Z,14.93
2019-01-28T05:38:43.344Z,15.45
2019-01-28T05:41:09.417Z,15.18
2019-01-28T05:43:39.173Z,15.50
2019-01-28T05:46:05.258Z,14.87
2019-01-28T05:48:31.438Z,15.00
2019-01-28T05:50:57.577Z,16.00
2019-01-28T05:53:23.635Z,18.48
2019-01-28T05:55:49.750Z,14.40
2019-01-28T05:58:15.827Z,14.97
2019-01-28T06:00:43.465Z,15.15
2019-01-28T06:03:09.533Z,14.35
2019-01-28T06:05:35.679Z,14.60
2019-01-28T06:08:01.991Z,14.75
2019-01-28T06:10:28.060Z,14.30
2019-01-28T06:12:54.230Z,14.25
2019-01-28T06:15:20.334Z,15.78
2019-01-28T06:17:46.504Z,14.83
2019-01-28T06:20:27.322Z,15.40
2019-01-28T06:22:53.524Z,14.70
2019-01-28T06:25:21.541Z,15.13
2019-01-28T06:27:47.754Z,14.47
2019-01-28T06:30:28.448Z,14.63
2019-01-28T06:32:56.857Z,13.38
2019-01-28T06:35:23.049Z,13.95
2019-01-28T06:37:52.421Z,13.50
2019-01-28T06:40:24.441Z,13.50
2019-01-28T06:42:51.067Z,12.85
2019-01-28T06:45:17.231Z,13.30
2019-01-28T06:47:46.931Z,14.50
2019-01-28T06:50:14.971Z,14.68
2019-01-28T06:52:41.067Z,15.07
2019-01-28T06:55:08.901Z,15.95
2019-01-28T06:57:34.978Z,16.37
2019-01-28T07:00:03.162Z,15.95
2019-01-28T07:02:29.360Z,18.23
2019-01-28T07:04:55.422Z,18.30
2019-01-28T07:07:22.906Z,18.40
2019-01-28T07:09:48.957Z,18.00
2019-01-28T07:12:14.996Z,16.70
2019-01-28T07:14:41.197Z,17.80
2019-01-28T07:17:07.342Z,15.32
2019-01-28T07:19:33.563Z,17.60
2019-01-28T07:21:59.711Z,18.15
2019-01-28T07:24:26.084Z,17.70
2019-01-28T07:26:52.125Z,16.90
2019-01-28T07:29:18.200Z,17.57
2019-01-28T07:31:44.262Z,16.50
2019-01-28T07:34:10.419Z,16.93
2019-01-28T07:36:36.468Z,17.75
2019-01-28T07:39:05.520Z,17.90
2019-01-28T07:41:31.997Z,17.50
2019-01-28T07:43:58.016Z,17.20
2019-01-28T07:46:24.084Z,17.10
2019-01-28T07:48:50.175Z,17.48
2019-01-28T07:51:16.591Z,17.07
2019-01-28T07:53:42.740Z,17.73
2019-01-28T07:56:11.191Z,17.75
2019-01-28T07:58:38.286Z,17.62
2019-01-28T08:01:04.575Z,17.70
2019-01-28T08:03:30.852Z,17.90
2019-01-28T08:05:56.902Z,16.80
2019-01-28T08:08:23.054Z,18.05
2019-01-28T08:10:49.116Z,18.10
2019-01-28T08:13:15.193Z,16.80
2019-01-28T08:15:41.272Z,17.85
2019-01-28T08:18:11.028Z,17.07
2019-01-28T08:20:35.521Z,16.20
2019-01-28T08:23:01.556Z,17.15
2019-01-28T08:25:28.962Z,15.80
2019-01-28T08:27:55.356Z,15.53
2019-01-28T08:30:33.268Z,15.80
2019-01-28T08:32:59.528Z,15.90
2019-01-28T08:35:27.184Z,14.93
2019-01-28T08:37:53.268Z,16.85
2019-01-28T08:40:20.702Z,17.00
2019-01-28T08:42:46.824Z,16.23
2019-01-28T08:45:13.307Z,16.40
2019-01-28T08:47:39.574Z,16.05
2019-01-28T08:50:09.409Z,16.75
2019-01-28T08:52:35.455Z,16.57
2019-01-28T08:55:01.911Z,15.90
2019-01-28T08:57:28.075Z,16.67
2019-01-28T08:59:54.091Z,16.50
2019-01-28T09:02:20.168Z,16.60
2019-01-28T09:04:46.673Z,17.03
2019-01-28T09:07:12.748Z,16.30
2019-01-28T09:09:39.010Z,15.90
2019-01-28T09:12:05.685Z,17.67
2019-01-28T09:14:31.752Z,17.82
2019-01-28T09:16:58.012Z,17.00
2019-01-28T09:19:24.044Z,16.50
2019-01-28T09:21:50.088Z,16.82
2019-01-28T09:24:16.178Z,16.27
2019-01-28T09:26:42.209Z,16.50
2019-01-28T09:29:08.269Z,16.00
2019-01-28T09:31:34.338Z,16.07
2019-01-28T09:34:00.385Z,16.60
2019-01-28T09:36:26.555Z,15.37
2019-01-28T09:38:52.608Z,16.73
2019-01-28T09:41:18.632Z,16.75
2019-01-28T09:43:44.684Z,15.60
2019-01-28T09:46:11.014Z,16.30
2019-01-28T09:48:37.100Z,16.80
2019-01-28T09:51:03.352Z,15.70
2019-01-28T09:53:29.760Z,15.48
2019-01-28T09:55:55.798Z,15.30
2019-01-28T09:58:21.861Z,15.23
2019-01-28T10:00:48.300Z,16.45
2019-01-28T10:03:14.368Z,15.23
2019-01-28T10:05:40.416Z,15.30
2019-01-28T10:08:07.858Z,15.35
2019-01-28T10:10:33.978Z,14.45
2019-01-28T10:13:00.065Z,14.10
2019-01-28T10:15:28.629Z,14.70
2019-01-28T10:17:55.760Z,14.40
2019-01-28T10:20:25.799Z,13.08
2019-01-28T10:22:51.828Z,12.28
2019-01-28T10:25:18.065Z,12.40
2019-01-28T10:27:44.427Z,14.53
2019-01-28T10:30:22.793Z,13.43
2019-01-28T10:32:49.303Z,12.78
2019-01-28T10:35:15.997Z,13.57
2019-01-28T10:37:42.323Z,13.18
2019-01-28T10:40:18.457Z,13.28
2019-01-28T10:42:44.722Z,13.40
2019-01-28T10:45:12.910Z,13.40
2019-01-28T10:47:39.074Z,12.93
2019-01-28T10:50:08.980Z,14.07
2019-01-28T10:52:35.059Z,13.15
2019-01-28T10:55:01.174Z,13.35
2019-01-28T10:57:27.220Z,11.70
2019-01-28T10:59:53.261Z,12.60
2019-01-28T11:02:19.293Z,13.28
2019-01-28T11:04:45.364Z,13.43
2019-01-28T11:07:11.583Z,13.20
2019-01-28T11:09:37.718Z,12.07
2019-01-28T11:12:04.101Z,13.10
2019-01-28T11:14:30.362Z,12.00
2019-01-28T11:16:56.586Z,12.33
2019-01-28T11:19:22.901Z,11.48
2019-01-28T11:21:49.037Z,12.75
2019-01-28T11:24:15.206Z,14.03
2019-01-28T11:26:41.339Z,12.80
2019-01-28T11:29:07.748Z,13.05
2019-01-28T11:31:34.029Z,12.87
2019-01-28T11:34:00.721Z,12.75
2019-01-28T11:36:26.929Z,12.50
2019-01-28T11:38:53.695Z,11.80
2019-01-28T11:41:20.042Z,12.55
2019-01-28T11:43:46.474Z,11.88
2019-01-28T11:46:12.533Z,11.75
2019-01-28T11:48:38.849Z,11.50
2019-01-28T11:51:04.952Z,12.58
2019-01-28T11:53:30.989Z,12.80
2019-01-28T11:55:57.165Z,12.45
2019-01-28T11:58:23.314Z,13.65
2019-01-28T12:00:54.460Z,13.05
2019-01-28T12:03:20.597Z,13.15
2019-01-28T12:05:46.715Z,12.87
2019-01-28T12:10:57.279Z,12.45
2019-01-28T12:13:23.321Z,13.55
2019-01-28T12:15:49.476Z,12.88
2019-01-28T12:18:15.532Z,12.40
2019-01-28T12:20:41.810Z,15.32
2019-01-28T12:23:08.085Z,13.25
2019-01-28T12:25:34.155Z,12.65
2019-01-28T12:28:01.830Z,12.25
2019-01-28T12:30:29.668Z,12.60
2019-01-28T12:32:55.704Z,12.25
2019-01-28T12:35:21.933Z,12.25
2019-01-28T12:37:48.109Z,12.20
2019-01-28T12:40:21.493Z,12.40
2019-01-28T12:42:48.178Z,12.75
2019-01-28T12:45:17.081Z,12.30
2019-01-28T12:47:44.183Z,11.85
2019-01-28T12:50:13.156Z,13.40
2019-01-28T12:52:39.207Z,13.62
2019-01-28T12:55:11.511Z,13.08
2019-01-28T12:57:37.559Z,14.35
2019-01-28T13:00:07.552Z,13.70
2019-01-28T13:02:33.612Z,14.73
2019-01-28T13:04:59.669Z,14.60
2019-01-28T13:07:25.722Z,14.50
2019-01-28T13:09:51.781Z,13.22
2019-01-28T13:12:17.876Z,13.25
2019-01-28T13:14:43.917Z,14.78
2019-01-28T13:17:10.061Z,15.70
2019-01-28T13:19:36.112Z,16.10
2019-01-28T13:22:02.851Z,16.00
2019-01-28T13:24:28.909Z,17.52
2019-01-28T13:26:55.103Z,16.20
2019-01-28T13:29:21.158Z,14.87
2019-01-28T13:31:47.193Z,16.13
2019-01-28T13:34:13.261Z,15.70
2019-01-28T13:36:39.317Z,16.10
2019-01-28T13:39:07.099Z,15.93
2019-01-28T13:41:33.376Z,16.23
2019-01-28T13:43:59.401Z,16.50
2019-01-28T13:46:25.554Z,18.35
2019-01-28T13:48:51.768Z,17.30
2019-01-28T13:51:17.785Z,17.45
2019-01-28T13:53:43.833Z,19.02
2019-01-28T13:56:10.071Z,17.92
2019-01-28T13:58:36.380Z,18.10
2019-01-28T14:01:04.035Z,16.62
2019-01-28T14:03:30.113Z,17.15
2019-01-28T14:05:56.210Z,16.82
2019-01-28T14:08:22.283Z,16.60
2019-01-28T14:10:48.720Z,17.60
2019-01-28T14:13:15.025Z,18.37
2019-01-28T14:15:41.096Z,18.12
2019-01-28T14:18:08.215Z,17.50
2019-01-28T14:20:36.425Z,18.85
2019-01-28T14:23:03.984Z,19.07
2019-01-28T14:25:30.109Z,18.27
2019-01-28T14:27:56.234Z,19.70
2019-01-28T14:30:25.894Z,17.95
2019-01-28T14:32:51.952Z,18.42
2019-01-28T14:35:18.367Z,18.75
2019-01-28T14:37:44.397Z,19.70
2019-01-28T14:40:14.253Z,19.50
2019-01-28T14:42:40.416Z,20.30
2019-01-28T14:45:09.074Z,20.10
2019-01-28T14:47:35.283Z,18.57
2019-01-28T14:50:01.536Z,19.50
2019-01-28T14:52:27.815Z,20.80
2019-01-28T14:54:53.839Z,20.97
2019-01-28T14:57:20.256Z,21.95
2019-01-28T14:59:46.407Z,20.20
2019-01-28T15:02:12.842Z,21.00
2019-01-28T15:04:38.979Z,20.88
2019-01-28T15:07:05.080Z,20.65
2019-01-28T15:09:31.144Z,20.52
2019-01-28T15:11:57.228Z,21.43
2019-01-28T15:14:23.337Z,21.65
2019-01-28T15:16:49.457Z,20.65
2019-01-28T15:19:15.768Z,20.27
2019-01-28T15:21:41.842Z,20.55
2019-01-28T15:24:07.906Z,19.83
2019-01-28T15:26:33.969Z,20.10
2019-01-28T15:29:00.129Z,20.68
2019-01-28T15:31:26.325Z,20.82
2019-01-28T15:33:52.792Z,22.15
2019-01-28T15:36:18.950Z,23.65
2019-01-28T15:38:45.102Z,24.30
2019-01-28T15:41:11.137Z,24.77
2019-01-28T15:43:37.215Z,24.07
2019-01-28T15:46:03.609Z,22.35
2019-01-28T15:48:29.936Z,21.37
2019-01-28T15:50:56.081Z,22.98
2019-01-28T15:53:22.494Z,23.18
2019-01-28T15:55:48.634Z,23.20
2019-01-28T15:58:14.882Z,21.12
2019-01-28T16:00:43.853Z,19.60
2019-01-28T16:03:10.132Z,19.20
2019-01-28T16:05:39.174Z,16.50
2019-01-28T16:08:06.018Z,14.78
2019-01-28T16:10:32.194Z,14.00
2019-01-28T16:12:58.259Z,13.83
2019-01-28T16:15:30.437Z,15.45
2019-01-28T16:17:58.895Z,14.43
2019-01-28T16:20:25.021Z,16.60
2019-01-28T16:22:51.698Z,16.20
2019-01-28T16:25:17.778Z,17.07
2019-01-28T16:27:43.845Z,17.70
2019-01-28T16:30:13.727Z,17.40
2019-01-28T16:32:39.924Z,18.00
2019-01-28T16:35:08.702Z,17.48
2019-01-28T16:37:34.749Z,19.50
2019-01-28T16:40:00.837Z,21.07
2019-01-28T16:42:26.915Z,21.23
2019-01-28T16:44:52.948Z,22.82
2019-01-28T16:47:19.107Z,24.92
2019-01-28T16:49:45.174Z,23.75
2019-01-28T16:52:11.417Z,24.93
2019-01-28T16:54:37.495Z,27.45
2019-01-28T16:57:04.007Z,29.30
2019-01-28T16:59:30.153Z,29.85
2019-01-28T17:01:56.201Z,26.55
2019-01-28T17:04:22.246Z,22.67
2019-01-28T17:06:48.316Z,18.30
2019-01-28T17:09:14.363Z,16.02
2019-01-28T17:11:40.477Z,13.20
2019-01-28T17:14:09.586Z,9.60
2019-01-28T17:16:36.089Z,8.90
2019-01-28T17:19:02.360Z,7.62
2019-01-28T17:21:28.437Z,15.20
2019-01-28T17:23:54.469Z,9.78
2019-01-28T17:26:20.543Z,7.30
2019-01-28T17:28:46.592Z,6.60
2019-01-28T17:31:12.649Z,7.20
2019-01-28T17:33:39.245Z,7.05
2019-01-28T17:36:05.497Z,6.83
2019-01-28T17:38:31.973Z,7.00
2019-01-28T17:40:58.009Z,7.50
2019-01-28T17:43:24.075Z,7.60
2019-01-28T17:45:50.286Z,7.40
2019-01-28T17:48:16.392Z,6.97
2019-01-28T17:50:43.912Z,7.80
2019-01-28T17:53:10.205Z,7.90
2019-01-28T17:55:36.437Z,7.10
2019-01-28T17:58:03.172Z,7.40
2019-01-28T18:00:43.211Z,7.30
2019-01-28T18:03:09.429Z,7.15
2019-01-28T18:05:35.761Z,6.78
2019-01-28T18:08:01.921Z,7.10
2019-01-28T18:10:28.873Z,7.30
2019-01-28T18:12:54.967Z,7.20
2019-01-28T18:15:23.038Z,6.40
2019-01-28T18:17:49.118Z,6.95
2019-01-28T18:20:15.995Z,7.12
2019-01-28T18:22:45.549Z,6.37
2019-01-28T18:25:18.601Z,6.45
2019-01-28T18:27:44.824Z,6.80
2019-01-28T18:30:18.773Z,7.03
2019-01-28T18:32:45.027Z,5.92
2019-01-28T18:35:11.428Z,6.35
2019-01-28T18:37:37.547Z,6.83
2019-01-28T18:40:08.135Z,7.03
2019-01-28T18:42:34.197Z,6.37
2019-01-28T18:45:00.264Z,6.17
2019-01-28T18:47:26.856Z,6.10
2019-01-28T18:49:55.626Z,5.90
2019-01-28T18:52:21.706Z,6.50
2019-01-28T18:54:47.887Z,8.73
2019-01-28T18:57:14.298Z,6.20
2019-01-28T18:59:40.843Z,5.92
2019-01-28T19:02:07.247Z,5.78
2019-01-28T19:04:33.712Z,6.28
2019-01-28T19:07:16.726Z,6.30
2019-01-28T19:09:43.319Z,6.90
2019-01-28T19:12:11.621Z,21.23
2019-01-28T19:14:39.589Z,17.10
2019-01-28T19:17:16.452Z,7.70
2019-01-28T19:19:44.787Z,6.75
2019-01-28T19:22:23.358Z,8.83
2019-01-28T19:24:44.800Z,7.87
2019-01-28T19:27:11.178Z,6.83
2019-01-28T19:29:37.726Z,6.80
2019-01-28T19:32:04.443Z,6.72
2019-01-28T19:34:30.681Z,6.60
2019-01-28T19:36:56.963Z,7.20
2019-01-28T19:39:23.237Z,6.87
2019-01-28T19:41:49.393Z,6.78
2019-01-28T19:44:15.612Z,7.12
2019-01-28T19:46:42.143Z,7.10
2019-01-28T19:49:08.269Z,7.70
2019-01-28T19:51:34.502Z,7.45
2019-01-28T19:54:01.031Z,7.90
2019-01-28T19:56:27.202Z,7.50
2019-01-28T19:58:53.332Z,8.45
2019-01-28T20:01:19.478Z,8.45
2019-01-28T20:03:45.539Z,8.78
2019-01-28T20:06:19.061Z,8.20
2019-01-28T20:08:45.232Z,8.75
2019-01-28T20:11:11.279Z,8.50
2019-01-28T20:13:38.707Z,8.23
2019-01-28T20:16:05.044Z,7.70
2019-01-28T20:18:31.245Z,8.25
2019-01-28T20:20:57.598Z,7.70
2019-01-28T20:23:23.681Z,8.00
2019-01-28T20:25:49.861Z,8.30
2019-01-28T20:28:16.225Z,8.05
2019-01-28T20:30:42.537Z,7.60
2019-01-28T20:33:08.646Z,13.40
2019-01-28T20:35:34.926Z,8.13
2019-01-28T20:38:00.999Z,8.30
2019-01-28T20:40:27.125Z,8.10
2019-01-28T20:42:53.241Z,7.00
2019-01-28T20:45:22.022Z,16.85
2019-01-28T20:47:48.118Z,36.25
2019-01-28T20:50:18.145Z,7.83
2019-01-28T20:52:44.581Z,8.00
2019-01-28T20:55:10.963Z,8.88
2019-01-28T20:57:37.289Z,10.00
2019-01-28T21:00:19.764Z,8.90
2019-01-28T21:02:46.128Z,9.33
2019-01-28T21:05:15.292Z,9.38
2019-01-28T21:07:50.975Z,7.90
2019-01-28T21:10:19.051Z,8.50
2019-01-28T21:12:45.236Z,8.53
2019-01-28T21:15:13.977Z,9.30
2019-01-28T21:17:40.345Z,8.80
2019-01-28T21:20:09.707Z,9.05
2019-01-28T21:22:35.899Z,10.10
2019-01-28T21:25:09.680Z,9.27
2019-01-28T21:27:35.824Z,8.48
2019-01-28T21:30:08.484Z,8.45
2019-01-28T21:32:35.148Z,8.15
2019-01-28T21:35:01.568Z,7.97
2019-01-28T21:37:27.996Z,7.00
2019-01-28T21:39:54.058Z,9.30
2019-01-28T21:42:20.655Z,11.77
2019-01-28T21:44:46.846Z,10.00
2019-01-28T21:47:12.893Z,8.50
2019-01-28T21:49:38.967Z,7.50
2019-01-28T21:52:05.168Z,7.83
2019-01-28T21:54:31.225Z,7.50
2019-01-28T21:56:57.274Z,8.00
2019-01-28T21:59:23.518Z,8.50
2019-01-28T22:01:49.861Z,8.70
2019-01-28T22:04:17.111Z,7.57
2019-01-28T22:06:43.619Z,7.20
2019-01-28T22:09:10.119Z,7.85
2019-01-28T22:11:36.474Z,6.90
2019-01-28T22:14:03.426Z,7.30
2019-01-28T22:16:29.732Z,6.40
2019-01-28T22:18:55.820Z,6.20
2019-01-28T22:21:22.510Z,6.80
2019-01-28T22:23:48.691Z,7.62
2019-01-28T22:26:14.874Z,7.00
2019-01-28T22:28:41.026Z,7.20
2019-01-28T22:31:07.203Z,5.90
2019-01-28T22:33:34.471Z,6.20
2019-01-28T22:36:00.903Z,7.62
2019-01-28T22:38:27.257Z,7.05
2019-01-28T22:40:53.396Z,6.90
2019-01-28T22:43:19.926Z,6.33
2019-01-28T22:45:46.116Z,6.83
2019-01-28T22:48:12.378Z,6.90
2019-01-28T22:50:47.711Z,7.70
2019-01-28T22:53:14.344Z,7.05
2019-01-28T22:55:42.124Z,6.55
2019-01-28T22:58:08.361Z,6.37
2019-01-28T23:00:48.118Z,5.70
2019-01-28T23:03:16.558Z,6.60
2019-01-28T23:05:42.792Z,6.10
2019-01-28T23:08:09.051Z,38.43
2019-01-28T23:10:35.242Z,80.12
2019-01-28T23:13:02.800Z,6.30
2019-01-28T23:15:29.097Z,6.87
2019-01-28T23:17:56.080Z,6.80
2019-01-28T23:20:22.603Z,6.70
2019-01-28T23:22:48.747Z,6.83
2019-01-28T23:25:15.262Z,6.78
2019-01-28T23:27:41.388Z,6.80
2019-01-28T23:30:10.752Z,6.30
2019-01-28T23:32:37.348Z,7.03
2019-01-28T23:35:07.131Z,7.30
2019-01-28T23:37:33.295Z,7.17
2019-01-28T23:39:59.564Z,6.28
2019-01-28T23:42:25.609Z,7.20
2019-01-28T23:44:51.717Z,7.20
2019-01-28T23:47:17.833Z,7.53
2019-01-28T23:49:43.936Z,6.97
2019-01-28T23:52:10.007Z,7.95
2019-01-28T23:54:36.197Z,7.87
2019-01-28T23:57:02.397Z,7.37
2019-01-28T23:59:28.638Z,7.87
